Fort McMurray, Canada
Current Conditions -  °F | °C
As of 3:00 AM on Monday 26 Jan 2015 (Local Time) from CYMM Reporting Station
Broken Clouds Broken Clouds  
Wind Chill: 25°   Ceiling: 20000
Heat Index: 30°   Visibility: 9mi
Dew Point: 27°   Wind: 5mph
Humidity: 86%   Direction: 210°SSW
Pressure: 29.71"   Gusts: NA
Location:  56.73°N, 111.38°W
Report Text: CYMM 261000Z AUTO 21004KT 9SM SCT170 BKN200 M01/M03 A2971 RMK SLP079
Loading
Personal Weather Stations






























Interactive Weather Map New forecast layout! Learn more

10-Day Weather Forecast

Advertisements
Track Severe Weather on mobile